Time;durP1;ratioP1;P1;durP2;ratioP2;P2;SDS_P1;SDS_P2;PMS_P1;PMS_P2;Temp;Humidity;BMP_temperature;BMP_pressure;BME280_temperature;BME280_humidity;BME280_pressure;Samples;Min_cycle;Max_cycle;Signal;HPM_P1;HPM_P2
2023/04/24 00:02:23;;;;;;;4.53;3.90;;;11.20;99.90;;;;;;4975287;28;20046;-77
2023/04/24 00:04:49;;;;;;;4.28;3.88;;;11.20;99.90;;;;;;4975234;28;20113;-77
2023/04/24 00:07:16;;;;;;;5.82;4.40;;;11.20;99.90;;;;;;4978999;28;20055;-77
2023/04/24 00:09:43;;;;;;;5.05;4.50;;;11.20;99.90;;;;;;4978962;28;20023;-78
2023/04/24 00:12:10;;;;;;;5.65;4.68;;;11.20;99.90;;;;;;4976176;28;20046;-78
2023/04/24 00:14:36;;;;;;;5.45;4.95;;;11.20;99.90;;;;;;4975489;28;20031;-78
2023/04/24 00:17:02;;;;;;;6.38;5.20;;;11.20;99.90;;;;;;4990643;28;20038;-77
2023/04/24 00:19:28;;;;;;;5.40;4.60;;;11.20;99.90;;;;;;4974015;28;20077;-78
2023/04/24 00:21:54;;;;;;;5.45;4.30;;;11.20;99.90;;;;;;4975048;28;20498;-78
2023/04/24 00:24:21;;;;;;;4.47;4.07;;;11.20;99.90;;;;;;4974237;28;20114;-78
2023/04/24 00:26:47;;;;;;;3.45;3.15;;;11.20;99.90;;;;;;4989911;28;20069;-77
2023/04/24 00:29:13;;;;;;;3.13;2.53;;;11.20;99.90;;;;;;4990379;28;20038;-77
2023/04/24 00:31:38;;;;;;;1.75;1.65;;;11.20;99.90;;;;;;4975579;28;20030;-77
2023/04/24 00:34:04;;;;;;;2.08;1.33;;;11.20;99.90;;;;;;4979125;28;20045;-77
2023/04/24 00:36:30;;;;;;;1.10;1.00;;;11.10;99.90;;;;;;4978866;28;20034;-77
2023/04/24 00:38:57;;;;;;;2.17;1.17;;;11.10;99.90;;;;;;4976935;28;20026;-77
2023/04/24 00:41:24;;;;;;;1.73;1.13;;;11.20;99.90;;;;;;4978146;28;20043;-77
2023/04/24 00:43:50;;;;;;;1.92;1.10;;;11.20;99.90;;;;;;4976546;28;20035;-77
2023/04/24 00:46:16;;;;;;;1.13;1.02;;;11.30;99.90;;;;;;4975364;28;20033;-77
2023/04/24 00:48:43;;;;;;;1.35;0.70;;;11.30;99.90;;;;;;4976136;28;20034;-77
2023/04/24 00:51:09;;;;;;;1.65;1.00;;;11.20;99.90;;;;;;4977712;28;20058;-77
2023/04/24 00:53:35;;;;;;;1.23;0.90;;;11.20;99.90;;;;;;4984049;28;20031;-78
2023/04/24 00:56:02;;;;;;;2.15;1.00;;;11.20;99.90;;;;;;4981546;28;20089;-80
2023/04/24 00:58:27;;;;;;;2.92;1.35;;;11.20;99.90;;;;;;4975373;28;20039;-79
2023/04/24 01:00:55;;;;;;;3.03;1.77;;;11.20;99.90;;;;;;4973778;28;20031;-79
2023/04/24 01:03:24;;;;;;;2.38;1.95;;;11.20;99.90;;;;;;4974697;28;20423;-76
2023/04/24 01:05:50;;;;;;;2.60;2.08;;;11.10;99.90;;;;;;4975054;28;20030;-76
2023/04/24 01:08:17;;;;;;;4.55;3.17;;;11.10;99.90;;;;;;4973411;28;20050;-76
2023/04/24 01:10:47;;;;;;;4.00;3.35;;;11.10;99.90;;;;;;4973750;28;20440;-76
2023/04/24 01:13:13;;;;;;;4.43;3.80;;;11.10;99.90;;;;;;4975119;28;20065;-76
2023/04/24 01:15:39;;;;;;;6.28;5.38;;;11.20;99.90;;;;;;4974855;28;20039;-76
2023/04/24 01:18:05;;;;;;;7.78;6.32;;;11.10;99.90;;;;;;4973507;28;20031;-77
2023/04/24 01:20:31;;;;;;;9.80;8.00;;;11.10;99.90;;;;;;4974026;28;20175;-77
2023/04/24 01:22:57;;;;;;;10.45;9.15;;;11.10;99.90;;;;;;4973940;28;20027;-77
2023/04/24 01:25:24;;;;;;;13.65;11.18;;;11.10;99.90;;;;;;4973613;28;20090;-78
2023/04/24 01:27:51;;;;;;;14.55;11.65;;;11.10;99.90;;;;;;4974792;28;20121;-78
2023/04/24 01:30:16;;;;;;;14.55;12.50;;;11.10;99.90;;;;;;4973565;28;20034;-78
2023/04/24 01:32:44;;;;;;;15.15;12.63;;;11.10;99.90;;;;;;4975348;28;20065;-78
2023/04/24 01:35:10;;;;;;;14.25;12.23;;;11.10;99.90;;;;;;4975009;28;20085;-78
2023/04/24 01:37:39;;;;;;;14.30;12.07;;;11.10;99.90;;;;;;4974403;28;20498;-78
2023/04/24 01:40:08;;;;;;;15.73;12.57;;;11.10;99.90;;;;;;4973512;28;20423;-78
2023/04/24 01:42:34;;;;;;;11.77;9.95;;;11.10;99.90;;;;;;4973885;28;20430;-78
2023/04/24 01:45:02;;;;;;;11.27;9.25;;;11.20;99.90;;;;;;4989842;28;20042;-77
2023/04/24 01:47:29;;;;;;;8.02;7.22;;;11.10;99.90;;;;;;4975074;28;20031;-77
2023/04/24 01:49:55;;;;;;;6.75;5.93;;;11.10;99.90;;;;;;4974316;28;20480;-77
2023/04/24 01:52:21;;;;;;;6.72;5.80;;;11.10;99.90;;;;;;4974647;28;20113;-78
2023/04/24 01:54:47;;;;;;;6.35;5.63;;;11.10;99.90;;;;;;4973778;28;20038;-77
2023/04/24 01:57:14;;;;;;;5.85;5.25;;;11.10;99.90;;;;;;4973361;28;20383;-77
2023/04/24 01:59:39;;;;;;;6.38;5.65;;;11.10;99.90;;;;;;4975103;28;20035;-77
2023/04/24 02:02:05;;;;;;;7.90;7.10;;;11.10;99.90;;;;;;4975801;28;20038;-77
2023/04/24 02:04:31;;;;;;;8.13;7.30;;;11.20;99.90;;;;;;4976996;28;20379;-77
2023/04/24 02:06:57;;;;;;;9.48;8.02;;;11.10;99.90;;;;;;4978434;28;20031;-77
2023/04/24 02:09:22;;;;;;;11.30;9.10;;;11.10;99.90;;;;;;4976805;28;20034;-77
2023/04/24 02:11:48;;;;;;;10.98;9.30;;;11.10;99.90;;;;;;4978122;28;20047;-77
2023/04/24 02:14:14;;;;;;;14.05;11.07;;;11.20;99.90;;;;;;4976603;28;20110;-78
2023/04/24 02:16:40;;;;;;;15.32;11.40;;;11.20;99.90;;;;;;4978251;28;20042;-78
2023/04/24 02:19:05;;;;;;;14.93;12.48;;;11.20;99.90;;;;;;4977852;28;20031;-77
2023/04/24 02:21:31;;;;;;;17.48;14.05;;;11.20;99.90;;;;;;4976791;28;20027;-78
2023/04/24 02:23:57;;;;;;;19.95;17.10;;;11.20;99.90;;;;;;4978123;28;20063;-77
2023/04/24 02:26:23;;;;;;;21.38;17.73;;;11.20;99.90;;;;;;4978114;28;20064;-77
2023/04/24 02:28:49;;;;;;;22.73;19.88;;;11.20;99.90;;;;;;4977944;28;20042;-78
2023/04/24 02:31:14;;;;;;;24.75;20.38;;;11.10;99.90;;;;;;4976984;28;20042;-77
2023/04/24 02:33:40;;;;;;;25.38;20.55;;;11.10;99.90;;;;;;4976491;28;20042;-77
2023/04/24 02:36:06;;;;;;;24.05;20.60;;;11.00;99.90;;;;;;4976344;28;20498;-77
2023/04/24 02:38:31;;;;;;;24.27;19.70;;;11.00;99.90;;;;;;4977838;28;20486;-77
2023/04/24 02:40:57;;;;;;;24.67;20.52;;;11.00;99.90;;;;;;4977231;28;20031;-77
2023/04/24 02:43:23;;;;;;;26.15;20.63;;;11.00;99.90;;;;;;4978299;28;20086;-78
2023/04/24 02:45:48;;;;;;;23.77;19.60;;;10.90;99.90;;;;;;4978277;28;20075;-78
2023/04/24 02:48:14;;;;;;;26.88;20.27;;;11.00;99.90;;;;;;4976070;28;20038;-77
2023/04/24 02:50:40;;;;;;;24.52;18.48;;;11.00;99.90;;;;;;4976107;28;20058;-77
2023/04/24 02:53:06;;;;;;;23.38;19.13;;;11.00;99.90;;;;;;4976116;28;20035;-77
2023/04/24 02:55:31;;;;;;;26.40;20.35;;;10.90;99.90;;;;;;4977410;28;20035;-78
2023/04/24 02:57:57;;;;;;;25.33;20.23;;;10.90;99.90;;;;;;4977520;28;20023;-77
2023/04/24 03:00:23;;;;;;;25.70;20.17;;;10.90;99.90;;;;;;4992088;28;20446;-77
2023/04/24 03:02:49;;;;;;;24.80;20.00;;;11.00;99.90;;;;;;4975571;28;20058;-78
2023/04/24 03:05:15;;;;;;;21.75;19.05;;;11.00;99.90;;;;;;4976308;28;20077;-77
2023/04/24 03:07:41;;;;;;;22.20;18.70;;;10.90;99.90;;;;;;4992522;28;20078;-77
2023/04/24 03:10:07;;;;;;;23.23;17.15;;;10.80;99.90;;;;;;4976964;28;20023;-78
2023/04/24 03:12:33;;;;;;;23.77;17.92;;;10.80;99.90;;;;;;4990402;28;20055;-78
2023/04/24 03:14:58;;;;;;;23.35;18.65;;;10.80;99.90;;;;;;4976269;28;20105;-77
2023/04/24 03:17:24;;;;;;;21.95;17.50;;;10.90;99.90;;;;;;4975654;28;20096;-77
2023/04/24 03:19:50;;;;;;;24.05;17.83;;;10.90;99.90;;;;;;4959902;28;20030;-77
2023/04/24 03:22:15;;;;;;;23.27;18.45;;;11.00;99.90;;;;;;4975330;28;20468;-77
2023/04/24 03:24:41;;;;;;;21.17;18.25;;;11.00;99.90;;;;;;4975535;28;20075;-78
2023/04/24 03:27:07;;;;;;;21.20;17.52;;;11.00;99.90;;;;;;4976691;28;20023;-77
2023/04/24 03:29:32;;;;;;;25.92;19.15;;;11.00;99.90;;;;;;4976722;28;20110;-77
2023/04/24 03:31:58;;;;;;;23.30;17.92;;;11.00;99.90;;;;;;4975695;28;20035;-77
2023/04/24 03:34:24;;;;;;;21.33;17.50;;;10.90;99.90;;;;;;4976108;28;20042;-77
2023/04/24 03:36:49;;;;;;;25.48;20.10;;;10.90;99.90;;;;;;4975790;28;20137;-77
2023/04/24 03:39:15;;;;;;;23.95;20.10;;;10.90;99.90;;;;;;4976060;28;20365;-78
2023/04/24 03:41:41;;;;;;;26.30;20.80;;;10.90;99.90;;;;;;4975193;28;20037;-78
2023/04/24 03:44:06;;;;;;;28.98;21.45;;;10.90;99.90;;;;;;4975121;28;20085;-77
2023/04/24 03:46:32;;;;;;;26.85;22.13;;;10.80;99.90;;;;;;4976352;28;20045;-77
2023/04/24 03:48:58;;;;;;;27.73;22.05;;;10.80;99.90;;;;;;4975023;28;20424;-77
2023/04/24 03:51:23;;;;;;;33.17;24.33;;;10.80;99.90;;;;;;4958547;28;20042;-77
2023/04/24 03:53:49;;;;;;;30.70;24.67;;;10.80;99.90;;;;;;4975897;28;20027;-77
2023/04/24 03:56:15;;;;;;;33.08;26.52;;;10.80;99.90;;;;;;4991035;28;20078;-78
2023/04/24 03:58:40;;;;;;;31.95;26.58;;;10.80;99.90;;;;;;4976068;28;20031;-77
2023/04/24 04:01:06;;;;;;;37.70;27.90;;;10.80;99.90;;;;;;4974858;28;20058;-77
2023/04/24 04:03:32;;;;;;;33.20;28.23;;;10.80;99.90;;;;;;4975992;28;20403;-77
2023/04/24 04:05:57;;;;;;;38.10;29.77;;;10.80;99.90;;;;;;4976213;28;20038;-78
2023/04/24 04:08:23;;;;;;;38.13;30.33;;;10.80;99.90;;;;;;4975904;28;20397;-78
2023/04/24 04:10:49;;;;;;;39.40;31.13;;;10.80;99.90;;;;;;4990775;28;20027;-78
2023/04/24 04:13:14;;;;;;;42.03;32.03;;;10.70;99.90;;;;;;4974558;28;20488;-77
2023/04/24 04:15:40;;;;;;;43.05;31.52;;;10.70;99.90;;;;;;4974469;28;20039;-77
2023/04/24 04:18:06;;;;;;;36.42;29.33;;;10.70;99.90;;;;;;4975937;28;20031;-78
2023/04/24 04:20:31;;;;;;;39.08;30.25;;;10.70;99.90;;;;;;4974521;28;20031;-77
2023/04/24 04:22:57;;;;;;;38.58;30.38;;;10.70;99.90;;;;;;4975384;28;20074;-77
2023/04/24 04:25:23;;;;;;;35.42;28.83;;;10.60;99.90;;;;;;4974324;28;20501;-77
2023/04/24 04:27:48;;;;;;;37.65;29.70;;;10.60;99.90;;;;;;4975800;28;20061;-77
2023/04/24 04:30:14;;;;;;;35.67;28.73;;;10.60;99.90;;;;;;4975293;28;20073;-77
2023/04/24 04:32:40;;;;;;;41.15;30.10;;;10.60;99.90;;;;;;4975694;28;20037;-78
2023/04/24 04:35:06;;;;;;;35.75;28.27;;;10.50;99.90;;;;;;4958001;28;20077;-78
2023/04/24 04:37:35;;;;;;;35.10;27.70;;;10.50;99.90;;;;;;4975914;28;20057;-78
2023/04/24 04:40:11;;;;;;;31.83;26.73;;;10.50;99.90;;;;;;4974105;28;20027;-77
2023/04/24 04:42:40;;;;;;;35.22;28.48;;;10.50;99.90;;;;;;4975620;28;20034;-78
2023/04/24 04:45:10;;;;;;;34.85;28.63;;;10.60;99.90;;;;;;4974606;28;20031;-78
2023/04/24 04:47:36;;;;;;;32.67;26.45;;;10.60;99.90;;;;;;4975218;28;20055;-78
2023/04/24 04:50:03;;;;;;;33.42;27.05;;;10.50;99.90;;;;;;4990331;28;20502;-77
2023/04/24 04:52:29;;;;;;;32.28;26.30;;;10.60;99.90;;;;;;4975137;28;20055;-78
2023/04/24 04:54:55;;;;;;;33.10;26.58;;;10.50;99.90;;;;;;4975111;28;20077;-78
2023/04/24 04:57:21;;;;;;;31.15;25.10;;;10.60;99.90;;;;;;4973811;28;20027;-78
2023/04/24 04:59:47;;;;;;;31.63;25.52;;;10.60;99.90;;;;;;4989755;28;20035;-77
2023/04/24 05:02:12;;;;;;;32.35;26.40;;;10.50;99.90;;;;;;4957875;28;20043;-78
2023/04/24 05:04:38;;;;;;;34.22;26.05;;;10.60;99.90;;;;;;4974360;28;20074;-78
2023/04/24 05:07:04;;;;;;;32.25;24.33;;;10.50;99.90;;;;;;4974787;28;20109;-78
2023/04/24 05:09:30;;;;;;;29.75;24.55;;;10.50;99.90;;;;;;4973997;28;20492;-77
2023/04/24 05:11:56;;;;;;;29.17;24.92;;;10.50;99.90;;;;;;4973684;28;20071;-78
2023/04/24 05:14:21;;;;;;;28.90;23.30;;;10.50;99.90;;;;;;4974955;28;20081;-77
2023/04/24 05:16:47;;;;;;;29.73;23.35;;;10.60;99.90;;;;;;4973680;28;20467;-78
2023/04/24 05:19:13;;;;;;;22.88;20.10;;;10.50;99.90;;;;;;4974764;28;20037;-78
2023/04/24 05:21:40;;;;;;;25.48;21.77;;;10.50;99.90;;;;;;4973684;28;20027;-78
2023/04/24 05:24:06;;;;;;;27.95;22.88;;;10.60;99.90;;;;;;4973576;28;20038;-78
2023/04/24 05:26:32;;;;;;;25.48;20.80;;;10.50;99.90;;;;;;4975082;28;20031;-77
2023/04/24 05:28:57;;;;;;;23.45;20.25;;;10.60;99.90;;;;;;4958155;28;20031;-77
2023/04/24 05:31:23;;;;;;;25.42;19.75;;;10.60;99.90;;;;;;4974709;28;20467;-77
2023/04/24 05:33:49;;;;;;;22.38;18.77;;;10.50;99.90;;;;;;4973821;28;20039;-77
2023/04/24 05:36:15;;;;;;;23.90;17.33;;;10.60;99.90;;;;;;4958476;28;20551;-78
2023/04/24 05:38:40;;;;;;;24.27;17.20;;;10.60;99.90;;;;;;4978435;28;20082;-83
2023/04/24 05:41:06;;;;;;;19.55;17.02;;;10.60;99.90;;;;;;4978384;28;20077;-80
2023/04/24 05:43:32;;;;;;;21.50;18.08;;;10.60;99.90;;;;;;4961043;28;20030;-77
2023/04/24 05:45:57;;;;;;;18.58;16.40;;;10.60;99.90;;;;;;4977208;28;20038;-77
2023/04/24 05:48:23;;;;;;;20.60;16.17;;;10.60;99.90;;;;;;4978728;28;20170;-78
2023/04/24 05:50:49;;;;;;;19.48;15.30;;;10.60;99.90;;;;;;4978290;28;20487;-77
2023/04/24 05:53:14;;;;;;;17.30;14.90;;;10.60;99.90;;;;;;4978089;28;20030;-78
2023/04/24 05:55:40;;;;;;;17.30;14.32;;;10.70;99.90;;;;;;4977660;28;20486;-78
2023/04/24 05:58:06;;;;;;;17.02;14.10;;;10.70;99.90;;;;;;4977829;28;20540;-78
2023/04/24 06:00:32;;;;;;;19.73;13.90;;;10.80;99.90;;;;;;4978193;28;20550;-76
2023/04/24 06:02:59;;;;;;;18.70;13.68;;;10.80;99.90;;;;;;4978429;28;20034;-77
2023/04/24 06:05:25;;;;;;;15.73;14.02;;;10.80;99.90;;;;;;4978138;28;20035;-76
2023/04/24 06:07:50;;;;;;;17.30;14.35;;;10.90;99.90;;;;;;4978072;28;20059;-76
2023/04/24 06:10:16;;;;;;;16.70;14.32;;;10.90;99.90;;;;;;4978023;28;20053;-75
2023/04/24 06:12:42;;;;;;;14.40;12.05;;;11.00;99.90;;;;;;4977779;28;20063;-77
2023/04/24 06:15:08;;;;;;;14.48;11.88;;;10.90;99.90;;;;;;4977843;28;20148;-78
2023/04/24 06:17:34;;;;;;;11.82;10.23;;;11.00;99.90;;;;;;4976763;28;20041;-78
2023/04/24 06:20:00;;;;;;;13.70;11.00;;;11.00;99.90;;;;;;4977873;28;20035;-75
2023/04/24 06:22:25;;;;;;;12.48;10.13;;;11.00;99.90;;;;;;4976583;28;20031;-78
2023/04/24 06:24:51;;;;;;;11.13;8.60;;;11.00;99.90;;;;;;4960542;28;20125;-75
2023/04/24 06:27:17;;;;;;;12.75;8.95;;;11.00;99.90;;;;;;4978282;28;20464;-76
2023/04/24 06:29:42;;;;;;;10.88;8.90;;;11.00;99.90;;;;;;4976422;28;20042;-75
2023/04/24 06:32:08;;;;;;;12.50;8.90;;;11.00;99.90;;;;;;4976486;28;20480;-75
2023/04/24 06:34:35;;;;;;;10.15;8.80;;;11.10;99.90;;;;;;4977430;28;20047;-75
2023/04/24 06:37:00;;;;;;;11.57;8.48;;;11.10;99.90;;;;;;4976346;28;20162;-75
2023/04/24 06:39:26;;;;;;;9.63;8.40;;;11.10;99.90;;;;;;4977641;28;20113;-75
2023/04/24 06:41:52;;;;;;;9.70;8.15;;;11.10;99.90;;;;;;4977379;28;20030;-76
2023/04/24 06:44:17;;;;;;;10.70;7.72;;;11.10;99.90;;;;;;4977926;28;20468;-77
2023/04/24 06:46:43;;;;;;;11.23;8.32;;;11.10;99.90;;;;;;4977033;28;20035;-77
2023/04/24 06:49:09;;;;;;;8.52;6.60;;;11.10;99.90;;;;;;4977556;28;20061;-76
2023/04/24 06:51:35;;;;;;;7.60;6.20;;;11.20;99.90;;;;;;4975963;28;20082;-77
2023/04/24 06:54:01;;;;;;;6.20;5.20;;;11.10;99.90;;;;;;4976108;28;20332;-77
2023/04/24 06:56:28;;;;;;;7.00;4.55;;;11.10;99.90;;;;;;4976172;28;20041;-79
2023/04/24 06:58:55;;;;;;;6.05;4.07;;;11.10;99.90;;;;;;4976881;28;20078;-77
2023/04/24 07:01:20;;;;;;;4.25;3.40;;;11.00;99.90;;;;;;4977095;28;20030;-77
2023/04/24 07:03:46;;;;;;;4.85;3.35;;;11.00;99.90;;;;;;4977294;28;20038;-78
2023/04/24 07:06:12;;;;;;;5.13;3.60;;;11.00;99.90;;;;;;4959759;28;20105;-78
2023/04/24 07:08:38;;;;;;;4.60;2.90;;;11.10;99.90;;;;;;4975887;28;20027;-78
2023/04/24 07:11:04;;;;;;;4.28;2.70;;;11.10;99.90;;;;;;4977215;28;20031;-77
2023/04/24 07:13:30;;;;;;;3.78;3.03;;;11.10;99.90;;;;;;4976613;28;20051;-77
2023/04/24 07:15:56;;;;;;;4.55;2.55;;;11.10;99.90;;;;;;4976732;28;20043;-76
2023/04/24 07:18:22;;;;;;;2.92;2.53;;;11.10;99.90;;;;;;4959542;28;20395;-77
2023/04/24 07:20:50;;;;;;;2.90;2.38;;;11.10;99.90;;;;;;4976786;28;20031;-77
2023/04/24 07:23:16;;;;;;;4.47;2.33;;;11.10;99.90;;;;;;4975573;28;20033;-77
2023/04/24 07:25:41;;;;;;;4.70;2.30;;;11.10;99.90;;;;;;4975413;28;20047;-75
2023/04/24 07:28:08;;;;;;;2.10;1.60;;;11.10;99.90;;;;;;4975296;28;20039;-76
2023/04/24 07:30:33;;;;;;;2.25;1.30;;;11.00;99.90;;;;;;4976534;28;20035;-76
2023/04/24 07:32:59;;;;;;;2.20;1.00;;;10.90;99.90;;;;;;4976156;28;20108;-78
2023/04/24 07:35:26;;;;;;;2.13;0.77;;;10.90;99.90;;;;;;4976354;28;20034;-75
2023/04/24 07:37:53;;;;;;;1.25;0.70;;;10.80;99.90;;;;;;4976791;28;20058;-74
2023/04/24 07:40:20;;;;;;;1.65;0.90;;;10.80;99.90;;;;;;4991331;28;20039;-75
2023/04/24 07:42:48;;;;;;;2.38;1.45;;;10.70;99.90;;;;;;4991035;28;20031;-75
2023/04/24 07:45:14;;;;;;;2.92;1.75;;;10.70;99.90;;;;;;4976171;28;20027;-74
2023/04/24 07:47:43;;;;;;;4.88;2.33;;;10.70;99.90;;;;;;4976231;28;20042;-75
2023/04/24 07:50:09;;;;;;;3.78;2.67;;;10.70;99.90;;;;;;4976104;28;20031;-75
2023/04/24 07:52:35;;;;;;;4.40;3.03;;;10.70;99.90;;;;;;4991046;28;20031;-75
2023/04/24 07:55:02;;;;;;;5.88;3.38;;;10.60;99.90;;;;;;4976258;28;20031;-74
2023/04/24 07:57:28;;;;;;;6.93;3.78;;;10.50;99.90;;;;;;4975728;28;20034;-74
2023/04/24 07:59:53;;;;;;;4.90;4.05;;;10.50;99.90;;;;;;4975399;28;20034;-74
2023/04/24 08:02:21;;;;;;;6.43;4.57;;;10.50;99.90;;;;;;4975634;28;20411;-75
2023/04/24 08:04:47;;;;;;;5.90;4.65;;;10.50;99.90;;;;;;4976447;28;20030;-74
2023/04/24 08:07:12;;;;;;;6.68;4.78;;;10.50;99.90;;;;;;4958976;28;20112;-74
2023/04/24 08:09:38;;;;;;;8.60;5.55;;;10.50;99.90;;;;;;4974637;28;20035;-74
2023/04/24 08:12:04;;;;;;;8.43;5.55;;;10.50;99.90;;;;;;4974347;28;20054;-75
2023/04/24 08:14:30;;;;;;;9.73;5.28;;;10.40;99.90;;;;;;4974261;28;20495;-75
2023/04/24 08:16:56;;;;;;;11.57;6.72;;;10.50;99.90;;;;;;4974992;28;20133;-74
2023/04/24 08:19:22;;;;;;;9.90;5.25;;;10.40;99.90;;;;;;4975600;28;20114;-75
2023/04/24 08:21:47;;;;;;;7.68;5.90;;;10.40;99.90;;;;;;4975922;28;20027;-76
2023/04/24 08:24:13;;;;;;;10.40;5.72;;;10.50;99.90;;;;;;4976091;28;20034;-76
2023/04/24 08:26:39;;;;;;;9.38;5.65;;;10.50;99.90;;;;;;4974610;28;20041;-76
2023/04/24 08:29:06;;;;;;;9.43;5.82;;;10.40;99.90;;;;;;4974107;28;20054;-74
2023/04/24 08:31:32;;;;;;;10.10;5.53;;;10.40;99.90;;;;;;4975789;28;20069;-76
2023/04/24 08:33:58;;;;;;;10.27;5.85;;;10.30;99.90;;;;;;4975466;28;20027;-75
2023/04/24 08:36:24;;;;;;;11.50;6.53;;;10.20;99.90;;;;;;4975588;28;20089;-75
2023/04/24 08:38:50;;;;;;;10.02;6.57;;;10.20;99.90;;;;;;4958473;28;20387;-74
2023/04/24 08:41:16;;;;;;;10.32;6.80;;;10.30;99.90;;;;;;4974194;28;20042;-74
2023/04/24 08:43:41;;;;;;;13.32;6.80;;;10.30;99.90;;;;;;4974109;28;20526;-73
2023/04/24 08:46:08;;;;;;;12.45;7.07;;;10.30;99.90;;;;;;4975261;28;20042;-73
2023/04/24 08:48:34;;;;;;;11.02;6.47;;;10.30;99.90;;;;;;4974511;28;20034;-73
2023/04/24 08:51:01;;;;;;;13.63;7.60;;;10.30;99.90;;;;;;4975276;28;20030;-73
2023/04/24 08:53:27;;;;;;;13.68;7.40;;;10.30;99.90;;;;;;4974749;28;20468;-76
2023/04/24 08:55:55;;;;;;;10.38;6.55;;;10.30;99.90;;;;;;4975495;28;20051;-75
2023/04/24 08:58:22;;;;;;;10.95;6.38;;;10.30;99.90;;;;;;4975665;28;20109;-75
2023/04/24 09:00:47;;;;;;;14.23;6.18;;;10.30;99.90;;;;;;4975090;28;20035;-75
2023/04/24 09:03:15;;;;;;;9.15;5.63;;;10.30;99.90;;;;;;4975233;28;20041;-76
2023/04/24 09:05:46;;;;;;;10.20;5.07;;;10.30;99.90;;;;;;4974716;28;20472;-77
2023/04/24 09:08:13;;;;;;;7.15;3.75;;;10.30;99.90;;;;;;4990292;28;20035;-77
2023/04/24 09:10:40;;;;;;;7.72;4.25;;;10.20;99.90;;;;;;4974681;28;20078;-77
2023/04/24 09:13:08;;;;;;;10.70;4.50;;;10.20;99.90;;;;;;4974598;28;20054;-75
2023/04/24 09:15:35;;;;;;;9.57;3.50;;;10.30;99.90;;;;;;4974753;28;20034;-75
2023/04/24 09:18:01;;;;;;;9.00;3.10;;;10.30;99.90;;;;;;4973838;28;20034;-77
2023/04/24 09:20:26;;;;;;;10.25;3.33;;;10.30;99.90;;;;;;4973726;28;20035;-71
2023/04/24 09:22:55;;;;;;;13.55;3.10;;;10.30;99.90;;;;;;4974090;28;20463;-70
2023/04/24 09:25:21;;;;;;;11.48;3.28;;;10.30;99.90;;;;;;4975065;28;20043;-72
2023/04/24 09:27:47;;;;;;;14.07;2.90;;;10.30;99.90;;;;;;4976513;28;20391;-70
2023/04/24 09:30:13;;;;;;;15.82;2.88;;;10.30;99.90;;;;;;4977694;28;20066;-78
2023/04/24 09:32:40;;;;;;;15.57;3.15;;;10.30;99.90;;;;;;4975146;28;20475;-72
2023/04/24 09:35:09;;;;;;;12.65;2.25;;;10.30;99.90;;;;;;4974957;28;20039;-76
2023/04/24 09:37:41;;;;;;;9.05;2.30;;;10.30;99.90;;;;;;4974435;28;20027;-77
2023/04/24 09:40:17;;;;;;;16.02;2.38;;;10.40;99.90;;;;;;4974474;28;20038;-71
2023/04/24 09:42:45;;;;;;;12.38;2.60;;;10.40;99.90;;;;;;4975066;28;20372;-74
2023/04/24 09:45:11;;;;;;;11.90;2.58;;;10.40;99.90;;;;;;4973260;28;20035;-75
2023/04/24 09:47:41;;;;;;;10.82;2.58;;;10.30;99.90;;;;;;4973157;28;20106;-77
2023/04/24 09:50:16;;;;;;;12.38;2.03;;;10.30;99.90;;;;;;4974151;28;20488;-74
2023/04/24 09:52:43;;;;;;;12.25;2.35;;;10.30;99.90;;;;;;4974514;28;20502;-73
2023/04/24 09:55:19;;;;;;;13.43;1.92;;;10.30;99.90;;;;;;4973134;28;20030;-75
2023/04/24 09:57:54;;;;;;;13.50;2.67;;;10.40;99.90;;;;;;4974766;28;20115;-75
2023/04/24 10:00:30;;;;;;;12.43;2.60;;;10.40;99.90;;;;;;4974823;28;20074;-74
2023/04/24 10:03:02;;;;;;;11.63;2.13;;;10.50;99.90;;;;;;4974794;28;20034;-75
2023/04/24 10:05:37;;;;;;;15.98;2.47;;;10.50;99.90;;;;;;4974446;28;20077;-75
2023/04/24 10:08:07;;;;;;;12.30;2.25;;;10.50;99.90;;;;;;4974561;28;20134;-74
2023/04/24 10:10:38;;;;;;;12.32;2.17;;;10.50;99.90;;;;;;4974049;28;20475;-75
2023/04/24 10:13:04;;;;;;;13.43;2.00;;;10.60;99.90;;;;;;4989023;28;20058;-75
2023/04/24 10:15:30;;;;;;;9.20;1.77;;;10.60;99.90;;;;;;4973650;28;20035;-74
2023/04/24 10:17:58;;;;;;;11.02;2.13;;;10.70;99.90;;;;;;4974144;28;20038;-75
2023/04/24 10:20:26;;;;;;;15.88;2.10;;;10.70;99.90;;;;;;4974203;28;20545;-75
2023/04/24 10:22:53;;;;;;;15.38;1.90;;;10.80;99.90;;;;;;4974994;28;20027;-74
2023/04/24 10:25:21;;;;;;;8.68;2.03;;;10.90;99.90;;;;;;4977813;28;20131;-76
2023/04/24 10:27:48;;;;;;;7.80;1.90;;;11.10;99.90;;;;;;4976476;28;20023;-75
2023/04/24 10:30:14;;;;;;;10.55;2.15;;;11.20;99.90;;;;;;4977697;28;20471;-75
2023/04/24 10:32:40;;;;;;;11.20;1.98;;;11.40;99.90;;;;;;4976482;28;20105;-75
2023/04/24 10:35:07;;;;;;;10.32;2.03;;;11.70;99.90;;;;;;4976368;28;20360;-75
2023/04/24 10:37:56;;;;;;;9.40;1.88;;;11.70;99.90;;;;;;4976232;28;20054;-75
2023/04/24 10:40:27;;;;;;;10.32;2.08;;;11.70;99.90;;;;;;4977610;28;20031;-75
2023/04/24 10:42:53;;;;;;;11.50;1.48;;;11.70;99.90;;;;;;4977343;28;20050;-75
2023/04/24 10:45:21;;;;;;;10.32;1.83;;;11.60;99.90;;;;;;4977167;28;20136;-76
2023/04/24 10:47:58;;;;;;;11.13;1.50;;;11.40;99.90;;;;;;4976441;28;20379;-76
2023/04/24 10:50:25;;;;;;;8.40;1.20;;;11.30;99.90;;;;;;4976585;28;20411;-75
2023/04/24 10:52:52;;;;;;;5.05;0.80;;;11.30;99.90;;;;;;4976089;28;20034;-76
2023/04/24 10:55:45;;;;;;;9.50;1.77;;;11.30;99.90;;;;;;4976113;28;20110;-75
2023/04/24 10:58:11;;;;;;;9.38;1.13;;;11.20;99.90;;;;;;4976601;28;20074;-75
2023/04/24 11:00:39;;;;;;;7.32;1.13;;;11.20;99.90;;;;;;4976026;28;20443;-76
2023/04/24 11:03:25;;;;;;;10.90;1.58;;;11.20;99.90;;;;;;4977178;28;20054;-76
2023/04/24 11:05:55;;;;;;;7.85;1.83;;;11.20;99.90;;;;;;4977696;28;20460;-76
2023/04/24 11:08:30;;;;;;;9.45;1.10;;;11.20;99.90;;;;;;4977067;28;20099;-75
2023/04/24 11:11:25;;;;;;;4.40;0.98;;;11.20;99.90;;;;;;4976267;28;20118;-75
2023/04/24 11:13:53;;;;;;;8.70;0.80;;;11.20;99.90;;;;;;4976035;28;20046;-75
2023/04/24 11:16:33;;;;;;;8.43;0.90;;;11.10;99.90;;;;;;4976045;28;20031;-75
2023/04/24 11:19:16;;;;;;;7.68;1.33;;;11.00;99.90;;;;;;4976823;28;20121;-75
2023/04/24 11:21:48;;;;;;;5.93;0.80;;;11.00;99.90;;;;;;4977205;28;20019;-76
2023/04/24 11:24:29;;;;;;;5.47;0.80;;;11.00;99.90;;;;;;4992363;28;20057;-75
2023/04/24 11:26:57;;;;;;;8.45;0.57;;;11.00;99.90;;;;;;4976624;28;20099;-75
2023/04/24 11:29:37;;;;;;;3.97;0.52;;;10.90;99.90;;;;;;4977194;28;20093;-76
2023/04/24 11:32:33;;;;;;;3.63;0.47;;;10.90;99.90;;;;;;4976675;28;20031;-75
2023/04/24 11:35:07;;;;;;;5.22;0.40;;;11.00;99.90;;;;;;4975765;28;20067;-75
2023/04/24 11:37:40;;;;;;;3.95;0.30;;;10.90;99.90;;;;;;4976779;28;20031;-75
2023/04/24 11:40:08;;;;;;;3.03;0.63;;;10.90;99.90;;;;;;4975548;28;20034;-76
2023/04/24 11:42:38;;;;;;;3.42;0.30;;;10.90;99.90;;;;;;4991351;28;20558;-76
2023/04/24 11:45:21;;;;;;;5.88;0.55;;;11.00;99.90;;;;;;4976324;28;20026;-76
2023/04/24 11:47:47;;;;;;;2.13;0.20;;;11.10;99.90;;;;;;4974764;28;20035;-75
2023/04/24 11:50:15;;;;;;;4.80;0.40;;;11.10;99.90;;;;;;4974837;28;20131;-76
2023/04/24 11:52:42;;;;;;;2.63;0.28;;;11.10;99.90;;;;;;4976258;28;20023;-75
2023/04/24 11:55:25;;;;;;;5.10;0.20;;;11.10;99.90;;;;;;4974989;28;20077;-75
2023/04/24 11:57:56;;;;;;;2.15;0.30;;;11.10;99.90;;;;;;4991619;28;20081;-76
2023/04/24 12:00:29;;;;;;;2.53;0.25;;;11.10;99.90;;;;;;4976362;28;20022;-75
2023/04/24 12:03:08;;;;;;;1.50;0.40;;;11.00;99.90;;;;;;4975838;28;20105;-75
2023/04/24 12:05:34;;;;;;;3.50;0.38;;;10.90;99.90;;;;;;4990514;28;20035;-77
2023/04/24 12:08:00;;;;;;;2.03;0.30;;;10.90;99.90;;;;;;4974697;28;20031;-77
2023/04/24 12:10:28;;;;;;;3.95;0.35;;;10.80;99.90;;;;;;4976536;28;20072;-77
2023/04/24 12:12:56;;;;;;;4.38;0.35;;;10.80;99.90;;;;;;4974740;28;20524;-76
2023/04/24 12:15:22;;;;;;;2.67;0.28;;;10.70;99.90;;;;;;4974704;28;20042;-76
2023/04/24 12:17:50;;;;;;;4.30;0.38;;;10.70;99.90;;;;;;4974592;28;20174;-76
2023/04/24 12:20:15;;;;;;;2.65;0.28;;;10.80;99.90;;;;;;4975670;28;20081;-77
2023/04/24 12:22:55;;;;;;;4.85;0.52;;;10.80;99.90;;;;;;4958815;28;20475;-76
2023/04/24 12:25:24;;;;;;;3.08;0.28;;;10.80;99.90;;;;;;4990661;28;20058;-75
2023/04/24 12:28:12;;;;;;;5.65;0.30;;;10.80;99.90;;;;;;4974450;28;20162;-76
2023/04/24 12:30:40;;;;;;;2.30;0.20;;;10.80;99.90;;;;;;4991132;28;20090;-76
2023/04/24 12:33:06;;;;;;;2.03;0.20;;;10.80;99.90;;;;;;4975531;28;20030;-77
2023/04/24 12:35:33;;;;;;;2.25;0.20;;;10.90;99.90;;;;;;4973931;28;20043;-77
2023/04/24 12:38:26;;;;;;;5.65;0.90;;;11.00;99.90;;;;;;4974398;28;20034;-76
2023/04/24 12:41:09;;;;;;;4.13;0.20;;;11.10;99.90;;;;;;4975383;28;20034;-77